MMGM/GYM METAR and TAF weather

Enter ICAO airport designator
Station Type Date Time Source
MMGM METAR 2021/04/13 22:40 UTC NOAA

MMGM 132240Z 20008KT 10SM SKC 27/17 A2975


Station Type Date Time Source
MMGM Decoded METAR 2021/04/13 22:40 UTC NOAA

Guaymas International Airport, Mexico (MMGM) 27-58N 110-56W
Apr 13, 2021 - 06:40 PM EDT / 2021.04.13 2240 UTC
Wind: from the SSW (200 degrees) at 9 MPH (8 KT):0
Visibility: 10 mile(s):0
Sky conditions: clear
Temperature: 80 F (27 C)
Dew Point: 62 F (17 C)
Relative Humidity: 54%
Pressure (altimeter): 29.75 in. Hg (1007 hPa)
ob: MMGM 132240Z 20008KT 10SM SKC 27/17 A2975
cycle: 22

Station Type Date Time Source
MMGM TAF 2021/04/13 18:42 UTC NOAA

TAF MMGM 131640Z 1318/1418 21006KT P6SM SKC
BECMG 1320/1321 23015KT
FM140200 25006KT P6SM SKC
BECMG 1405/1406 12005KT
FM141200 12005KT P6SM SCT250

Example: see airport list